Time,TemperatureF,DewpointF,PressureIn,WindDirection,WindDirectionDegrees,WindSpeedMPH,WindSpeedGustMPH,Humidity,HourlyPrecipIn,Conditions,Clouds,dailyrainin,SolarRadiationWatts/m^2,SoftwareType,DateUTC
2013-05-19 00:03:00,67.0,66.0,-100.00,SE,133,0.0,4.0,96,0.00,,,0.00,0.000000,,2013-05-19 04:03:00,
2013-05-19 00:13:00,67.0,66.0,-100.00,SE,133,0.0,4.0,96,0.00,,,0.00,0.000000,,2013-05-19 04:13:00,
2013-05-19 00:33:00,66.0,65.0,-100.00,ESE,117,2.0,3.0,98,0.00,,,0.00,0.000000,,2013-05-19 04:33:00,
2013-05-19 00:42:00,66.0,65.0,-100.00,ESE,117,2.0,3.0,98,0.00,,,0.00,0.000000,,2013-05-19 04:42:00,
2013-05-19 00:53:00,66.0,65.0,-100.00,ESE,117,2.0,3.0,98,0.00,,,0.00,0.000000,,2013-05-19 04:53:00,
2013-05-19 01:02:00,66.0,65.0,-100.00,ESE,117,2.0,3.0,98,0.00,,,0.00,0.000000,,2013-05-19 05:02:00,
2013-05-19 01:12:00,66.0,65.0,-100.00,ESE,117,2.0,3.0,98,0.00,,,0.00,0.000000,,2013-05-19 05:12:00,
2013-05-19 01:42:00,66.0,66.0,-100.00,SE,130,1.0,3.0,99,0.00,,,0.00,0.000000,,2013-05-19 05:42:00,
2013-05-19 01:52:00,66.0,66.0,-100.00,SE,130,1.0,3.0,99,0.00,,,0.00,0.000000,,2013-05-19 05:52:00,
2013-05-19 02:02:00,66.0,66.0,-100.00,SE,130,1.0,3.0,99,0.00,,,0.00,0.000000,,2013-05-19 06:02:00,
2013-05-19 02:12:00,66.0,66.0,-100.00,SE,130,1.0,3.0,99,0.00,,,0.00,0.000000,,2013-05-19 06:12:00,
2013-05-19 02:42:00,66.0,66.0,-100.00,ESE,118,1.0,2.0,99,0.00,,,0.00,0.000000,,2013-05-19 06:42:00,
2013-05-19 02:52:00,66.0,66.0,-100.00,ESE,118,1.0,2.0,99,0.00,,,0.00,0.000000,,2013-05-19 06:52:00,
2013-05-19 03:01:00,66.0,66.0,-100.00,ESE,118,1.0,2.0,99,0.00,,,0.00,0.000000,,2013-05-19 07:01:00,
2013-05-19 03:11:00,66.0,66.0,-100.00,ESE,118,1.0,2.0,99,0.00,,,0.00,0.000000,,2013-05-19 07:11:00,
2013-05-19 03:42:00,66.0,66.0,-100.00,ESE,119,1.0,3.0,99,0.00,,,0.00,0.000000,,2013-05-19 07:42:00,
2013-05-19 03:52:00,66.0,66.0,-100.00,ESE,119,1.0,3.0,99,0.00,,,0.00,0.000000,,2013-05-19 07:52:00,
2013-05-19 04:02:00,66.0,66.0,-100.00,ESE,119,1.0,3.0,99,0.00,,,0.00,0.000000,,2013-05-19 08:02:00,
2013-05-19 04:12:00,66.0,66.0,-100.00,ESE,119,1.0,3.0,99,0.00,,,0.00,0.000000,,2013-05-19 08:12:00,
2013-05-19 04:42:00,66.0,66.0,-100.00,ESE,120,0.0,3.0,100,0.00,,,0.00,0.000000,,2013-05-19 08:42:00,
2013-05-19 04:52:00,66.0,66.0,-100.00,ESE,120,0.0,3.0,100,0.00,,,0.00,0.000000,,2013-05-19 08:52:00,
2013-05-19 05:02:00,66.0,66.0,-100.00,ESE,120,0.0,3.0,100,0.00,,,0.00,0.000000,,2013-05-19 09:02:00,
2013-05-19 05:12:00,66.0,66.0,-100.00,ESE,120,0.0,3.0,100,0.00,,,0.00,0.000000,,2013-05-19 09:12:00,
2013-05-19 05:33:00,65.0,65.0,-100.00,SE,127,1.0,2.0,100,0.00,,,0.00,0.000000,,2013-05-19 09:33:00,
2013-05-19 05:43:00,65.0,65.0,-100.00,SE,127,1.0,2.0,100,0.00,,,0.00,0.000000,,2013-05-19 09:43:00,
2013-05-19 05:53:00,65.0,65.0,-100.00,SE,127,1.0,2.0,100,0.00,,,0.00,0.000000,,2013-05-19 09:53:00,
2013-05-19 06:03:00,65.0,65.0,-100.00,SE,127,1.0,2.0,100,0.00,,,0.00,0.000000,,2013-05-19 10:03:00,
2013-05-19 06:12:00,65.0,65.0,-100.00,SE,127,1.0,2.0,100,0.00,,,0.00,0.000000,,2013-05-19 10:12:00,
2013-05-19 06:42:00,65.0,65.0,-100.00,SE,128,1.0,3.0,100,0.00,,,0.00,1.000000,,2013-05-19 10:42:00,
2013-05-19 06:53:00,65.0,65.0,-100.00,SE,128,1.0,3.0,100,0.00,,,0.00,1.000000,,2013-05-19 10:53:00,
2013-05-19 07:02:00,65.0,65.0,-100.00,SE,128,1.0,3.0,100,0.00,,,0.00,1.000000,,2013-05-19 11:02:00,
2013-05-19 07:12:00,65.0,65.0,-100.00,SE,128,1.0,3.0,100,0.00,,,0.00,1.000000,,2013-05-19 11:12:00,
2013-05-19 07:32:00,68.0,68.0,-100.00,ESE,104,1.0,3.0,100,0.00,,,0.00,49.000000,,2013-05-19 11:32:00,
2013-05-19 07:42:00,68.0,68.0,-100.00,ESE,104,1.0,3.0,100,0.00,,,0.00,49.000000,,2013-05-19 11:42:00,
2013-05-19 07:53:00,68.0,68.0,-100.00,ESE,104,1.0,3.0,100,0.00,,,0.00,49.000000,,2013-05-19 11:53:00,
2013-05-19 08:01:00,68.0,68.0,-100.00,ESE,104,1.0,3.0,100,0.00,,,0.00,49.000000,,2013-05-19 12:01:00,
2013-05-19 08:12:00,68.0,68.0,-100.00,ESE,104,1.0,3.0,100,0.00,,,0.00,49.000000,,2013-05-19 12:12:00,
2013-05-19 08:42:00,75.0,72.0,-100.00,SSE,168,4.0,7.0,89,0.00,,,0.00,270.000000,,2013-05-19 12:42:00,
2013-05-19 08:52:00,75.0,72.0,-100.00,SSE,168,4.0,7.0,89,0.00,,,0.00,270.000000,,2013-05-19 12:52:00,
2013-05-19 09:01:00,75.0,72.0,-100.00,SSE,168,4.0,7.0,89,0.00,,,0.00,270.000000,,2013-05-19 13:01:00,
2013-05-19 09:11:00,75.0,72.0,-100.00,SSE,168,4.0,7.0,89,0.00,,,0.00,270.000000,,2013-05-19 13:11:00,
2013-05-19 09:42:00,77.0,67.0,-100.00,SSW,195,5.0,10.0,71,0.00,,,0.00,447.000000,,2013-05-19 13:42:00,
2013-05-19 09:52:00,77.0,67.0,-100.00,SSW,195,5.0,10.0,71,0.00,,,0.00,447.000000,,2013-05-19 13:52:00,
2013-05-19 10:02:00,77.0,67.0,-100.00,SSW,195,5.0,10.0,71,0.00,,,0.00,447.000000,,2013-05-19 14:02:00,
2013-05-19 10:11:00,77.0,67.0,-100.00,SSW,195,5.0,10.0,71,0.00,,,0.00,447.000000,,2013-05-19 14:11:00,
2013-05-19 10:42:00,77.0,66.0,-100.00,South,172,7.0,13.0,70,0.00,,,0.00,357.000000,,2013-05-19 14:42:00,
2013-05-19 10:52:00,77.0,66.0,-100.00,South,172,7.0,13.0,70,0.00,,,0.00,357.000000,,2013-05-19 14:52:00,
2013-05-19 11:02:00,77.0,66.0,-100.00,South,172,7.0,13.0,70,0.00,,,0.00,357.000000,,2013-05-19 15:02:00,
2013-05-19 11:12:00,77.0,66.0,-100.00,South,172,7.0,13.0,70,0.00,,,0.00,357.000000,,2013-05-19 15:12:00,
2013-05-19 11:43:00,79.0,68.0,-100.00,SSE,165,5.0,13.0,68,0.00,,,0.00,469.000000,,2013-05-19 15:43:00,
2013-05-19 11:53:00,79.0,68.0,-100.00,SSE,165,5.0,13.0,68,0.00,,,0.00,469.000000,,2013-05-19 15:53:00,
2013-05-19 12:03:00,79.0,68.0,-100.00,SSE,165,5.0,13.0,68,0.00,,,0.00,469.000000,,2013-05-19 16:03:00,
2013-05-19 12:12:00,79.0,68.0,-100.00,SSE,165,5.0,13.0,68,0.00,,,0.00,469.000000,,2013-05-19 16:12:00,
2013-05-19 12:42:00,80.0,67.0,-100.00,South,175,8.0,16.0,64,0.00,,,0.00,603.000000,,2013-05-19 16:42:00,
2013-05-19 12:53:00,80.0,67.0,-100.00,South,175,8.0,16.0,64,0.00,,,0.00,603.000000,,2013-05-19 16:53:00,
2013-05-19 13:02:00,80.0,67.0,-100.00,South,175,8.0,16.0,64,0.00,,,0.00,603.000000,,2013-05-19 17:02:00,
2013-05-19 13:12:00,80.0,67.0,-100.00,South,175,8.0,16.0,64,0.00,,,0.00,603.000000,,2013-05-19 17:12:00,
2013-05-19 13:43:00,81.0,68.0,-100.00,South,171,8.0,16.0,64,0.00,,,0.00,753.000000,,2013-05-19 17:43:00,
2013-05-19 13:52:00,81.0,68.0,-100.00,South,171,8.0,16.0,64,0.00,,,0.00,753.000000,,2013-05-19 17:52:00,
2013-05-19 14:02:00,81.0,68.0,-100.00,South,171,8.0,16.0,64,0.00,,,0.00,753.000000,,2013-05-19 18:02:00,
2013-05-19 14:12:00,81.0,68.0,-100.00,South,171,8.0,16.0,64,0.00,,,0.00,753.000000,,2013-05-19 18:12:00,
2013-05-19 14:43:00,80.0,66.0,-100.00,South,182,9.0,17.0,63,0.00,,,0.00,810.000000,,2013-05-19 18:43:00,
2013-05-19 14:53:00,80.0,66.0,-100.00,South,182,9.0,17.0,63,0.00,,,0.00,810.000000,,2013-05-19 18:53:00,
2013-05-19 15:01:00,80.0,66.0,-100.00,South,182,9.0,17.0,63,0.00,,,0.00,810.000000,,2013-05-19 19:01:00,
2013-05-19 15:11:00,80.0,66.0,-100.00,South,182,9.0,17.0,63,0.00,,,0.00,810.000000,,2013-05-19 19:11:00,
2013-05-19 15:42:00,78.0,65.0,-100.00,SSE,166,8.0,16.0,65,0.00,,,0.00,513.000000,,2013-05-19 19:42:00,
2013-05-19 15:52:00,78.0,65.0,-100.00,SSE,166,8.0,16.0,65,0.00,,,0.00,513.000000,,2013-05-19 19:52:00,
2013-05-19 16:02:00,78.0,65.0,-100.00,SSE,166,8.0,16.0,65,0.00,,,0.00,513.000000,,2013-05-19 20:02:00,
2013-05-19 16:11:00,78.0,65.0,-100.00,SSE,166,8.0,16.0,65,0.00,,,0.00,513.000000,,2013-05-19 20:11:00,
2013-05-19 16:42:00,81.0,69.0,-100.00,South,189,7.0,15.0,67,0.00,,,0.00,592.000000,,2013-05-19 20:42:00,
2013-05-19 16:52:00,81.0,69.0,-100.00,South,189,7.0,15.0,67,0.00,,,0.00,592.000000,,2013-05-19 20:52:00,
2013-05-19 17:02:00,81.0,69.0,-100.00,South,189,7.0,15.0,67,0.00,,,0.00,592.000000,,2013-05-19 21:02:00,
2013-05-19 17:11:00,81.0,69.0,-100.00,South,189,7.0,15.0,67,0.00,,,0.00,592.000000,,2013-05-19 21:11:00,
2013-05-19 17:43:00,79.0,66.0,-100.00,South,176,8.0,15.0,65,0.00,,,0.00,485.000000,,2013-05-19 21:43:00,
2013-05-19 17:53:00,79.0,66.0,-100.00,South,176,8.0,15.0,65,0.00,,,0.00,485.000000,,2013-05-19 21:53:00,
2013-05-19 18:03:00,79.0,66.0,-100.00,South,176,8.0,15.0,65,0.00,,,0.00,485.000000,,2013-05-19 22:03:00,
2013-05-19 18:12:00,79.0,66.0,-100.00,South,176,8.0,15.0,65,0.00,,,0.00,485.000000,,2013-05-19 22:12:00,
2013-05-19 18:43:00,76.0,66.0,-100.00,South,179,7.0,14.0,72,0.00,,,0.00,249.000000,,2013-05-19 22:43:00,
2013-05-19 18:53:00,76.0,66.0,-100.00,South,179,7.0,14.0,72,0.00,,,0.00,249.000000,,2013-05-19 22:53:00,
2013-05-19 19:03:00,76.0,66.0,-100.00,South,179,7.0,14.0,72,0.00,,,0.00,249.000000,,2013-05-19 23:03:00,
2013-05-19 19:12:00,76.0,66.0,-100.00,South,179,7.0,14.0,72,0.00,,,0.00,249.000000,,2013-05-19 23:12:00,
2013-05-19 19:42:00,74.0,67.0,-100.00,South,173,5.0,12.0,78,0.00,,,0.00,51.000000,,2013-05-19 23:42:00,
2013-05-19 19:52:00,74.0,67.0,-100.00,South,173,5.0,12.0,78,0.00,,,0.00,51.000000,,2013-05-19 23:52:00,
2013-05-19 20:02:00,74.0,67.0,-100.00,South,173,5.0,12.0,78,0.00,,,0.00,51.000000,,2013-05-20 00:02:00,
2013-05-19 20:12:00,74.0,67.0,-100.00,South,173,5.0,12.0,78,0.00,,,0.00,51.000000,,2013-05-20 00:12:00,
2013-05-19 20:42:00,73.0,67.0,-100.00,SSE,160,3.0,9.0,82,0.00,,,0.00,13.000000,,2013-05-20 00:42:00,
2013-05-19 20:52:00,73.0,67.0,-100.00,SSE,160,3.0,9.0,82,0.00,,,0.00,13.000000,,2013-05-20 00:52:00,
2013-05-19 21:01:00,73.0,67.0,-100.00,SSE,160,3.0,9.0,82,0.00,,,0.00,13.000000,,2013-05-20 01:01:00,
2013-05-19 21:11:00,73.0,67.0,-100.00,SSE,160,3.0,9.0,82,0.00,,,0.00,13.000000,,2013-05-20 01:11:00,
2013-05-19 21:32:00,71.0,68.0,-100.00,SE,128,2.0,5.0,89,0.00,,,0.00,0.000000,,2013-05-20 01:32:00,
2013-05-19 21:42:00,71.0,68.0,-100.00,SE,128,2.0,5.0,89,0.00,,,0.00,0.000000,,2013-05-20 01:42:00,
2013-05-19 21:52:00,71.0,68.0,-100.00,SE,128,2.0,5.0,89,0.00,,,0.00,0.000000,,2013-05-20 01:52:00,
2013-05-19 22:02:00,71.0,68.0,-100.00,SE,128,2.0,5.0,89,0.00,,,0.00,0.000000,,2013-05-20 02:02:00,
2013-05-19 22:12:00,71.0,68.0,-100.00,SE,128,2.0,5.0,89,0.00,,,0.00,0.000000,,2013-05-20 02:12:00,
2013-05-19 22:42:00,71.0,68.0,-100.00,SE,131,3.0,5.0,90,0.00,,,0.00,0.000000,,2013-05-20 02:42:00,
2013-05-19 22:52:00,71.0,68.0,-100.00,SE,131,3.0,5.0,90,0.00,,,0.00,0.000000,,2013-05-20 02:52:00,
2013-05-19 23:02:00,71.0,68.0,-100.00,SE,131,3.0,5.0,90,0.00,,,0.00,0.000000,,2013-05-20 03:02:00,
2013-05-19 23:11:00,71.0,68.0,-100.00,SE,131,3.0,5.0,90,0.00,,,0.00,0.000000,,2013-05-20 03:11:00,
2013-05-19 23:33:00,69.0,67.0,-100.00,SE,125,2.0,4.0,93,0.00,,,0.00,0.000000,,2013-05-20 03:33:00,
2013-05-19 23:43:00,69.0,67.0,-100.00,SE,125,2.0,4.0,93,0.00,,,0.00,0.000000,,2013-05-20 03:43:00,
2013-05-19 23:53:00,69.0,67.0,-100.00,SE,125,2.0,4.0,93,0.00,,,0.00,0.000000,,2013-05-20 03:53:00,